sensor_id;sensor_type;location;lat;lon;timestamp;pressure;altitude;pressure_sealevel;temperature;humidity
68489;BME280;55481;48.764;8.936;2023-05-10T00:00:19;96390;;;12.2;80.5
68489;BME280;55481;48.764;8.936;2023-05-10T00:02:49;96390;;;12.1;80.5
68489;BME280;55481;48.764;8.936;2023-05-10T00:05:20;96400;;;12.1;80.5
68489;BME280;55481;48.764;8.936;2023-05-10T00:07:50;96390;;;12.1;80.5
68489;BME280;55481;48.764;8.936;2023-05-10T00:10:14;96400;;;12.1;80.5
68489;BME280;55481;48.764;8.936;2023-05-10T00:12:45;96400;;;12.1;80.5
68489;BME280;55481;48.764;8.936;2023-05-10T00:15:22;96390;;;12.1;80.5
68489;BME280;55481;48.764;8.936;2023-05-10T00:17:53;96390;;;12;80.5
68489;BME280;55481;48.764;8.936;2023-05-10T00:22:49;96390;;;12;80.5
68489;BME280;55481;48.764;8.936;2023-05-10T00:27:57;96390;;;12;80.5
68489;BME280;55481;48.764;8.936;2023-05-10T00:30:27;96380;;;12;80.5
68489;BME280;55481;48.764;8.936;2023-05-10T00:35:22;96390;;;12;80.5
68489;BME280;55481;48.764;8.936;2023-05-10T00:37:58;96390;;;12;80.5
68489;BME280;55481;48.764;8.936;2023-05-10T00:40:23;96390;;;12;80.5
68489;BME280;55481;48.764;8.936;2023-05-10T00:42:54;96400;;;12;80.5
68489;BME280;55481;48.764;8.936;2023-05-10T00:45:32;96390;;;12;80.5
68489;BME280;55481;48.764;8.936;2023-05-10T00:48:03;96400;;;12.1;80.5
68489;BME280;55481;48.764;8.936;2023-05-10T00:50:27;96400;;;12.1;80.5
68489;BME280;55481;48.764;8.936;2023-05-10T00:52:59;96400;;;12.1;80
68489;BME280;55481;48.764;8.936;2023-05-10T00:55:29;96410;;;12.1;80
68489;BME280;55481;48.764;8.936;2023-05-10T00:58:00;96410;;;12.1;80
68489;BME280;55481;48.764;8.936;2023-05-10T01:00:37;96410;;;12.1;80
68489;BME280;55481;48.764;8.936;2023-05-10T01:03:02;96410;;;12.2;80
68489;BME280;55481;48.764;8.936;2023-05-10T01:10:41;96410;;;12.3;80
68489;BME280;55481;48.764;8.936;2023-05-10T01:13:11;96410;;;12.3;80
68489;BME280;55481;48.764;8.936;2023-05-10T01:18:05;96420;;;12.1;80.5
68489;BME280;55481;48.764;8.936;2023-05-10T01:23:48;96410;;;12.1;80.5
68489;BME280;55481;48.764;8.936;2023-05-10T01:30:50;96420;;;12.1;80.5
68489;BME280;55481;48.764;8.936;2023-05-10T01:34:20;96420;;;12.3;80
68489;BME280;55481;48.764;8.936;2023-05-10T01:35:51;96420;;;12.2;80
68489;BME280;55481;48.764;8.936;2023-05-10T01:43:14;96420;;;12;80.5
68489;BME280;55481;48.764;8.936;2023-05-10T01:45:47;96420;;;12;80.5
68489;BME280;55481;48.764;8.936;2023-05-10T01:48:19;96420;;;12.1;80.5
68489;BME280;55481;48.764;8.936;2023-05-10T01:50:50;96430;;;12.1;80.5
68489;BME280;55481;48.764;8.936;2023-05-10T01:55:46;96430;;;12.2;80.5
68489;BME280;55481;48.764;8.936;2023-05-10T01:58:20;96430;;;12.2;80.5
68489;BME280;55481;48.764;8.936;2023-05-10T02:03:24;96430;;;12.1;80.5
68489;BME280;55481;48.764;8.936;2023-05-10T02:05:54;96440;;;12.1;80.5
68489;BME280;55481;48.764;8.936;2023-05-10T02:08:25;96440;;;12.1;80.5
68489;BME280;55481;48.764;8.936;2023-05-10T02:15:55;96440;;;11.9;80.5
68489;BME280;55481;48.764;8.936;2023-05-10T02:20:59;96440;;;11.7;81
68489;BME280;55481;48.764;8.936;2023-05-10T02:23:29;96440;;;11.7;81
68489;BME280;55481;48.764;8.936;2023-05-10T02:25:53;96450;;;11.6;81
68489;BME280;55481;48.764;8.936;2023-05-10T02:28:25;96450;;;11.6;81
68489;BME280;55481;48.764;8.936;2023-05-10T02:30:55;96460;;;11.5;81
68489;BME280;55481;48.764;8.936;2023-05-10T02:38:40;96470;;;11.5;81
68489;BME280;55481;48.764;8.936;2023-05-10T02:41:17;96470;;;11.6;81
68489;BME280;55481;48.764;8.936;2023-05-10T02:43:34;96470;;;11.6;81
68489;BME280;55481;48.764;8.936;2023-05-10T02:48:28;96470;;;11.7;81
68489;BME280;55481;48.764;8.936;2023-05-10T02:51:00;96460;;;11.8;80.5
68489;BME280;55481;48.764;8.936;2023-05-10T02:53:31;96470;;;11.8;80.5
68489;BME280;55481;48.764;8.936;2023-05-10T02:55:56;96470;;;11.9;80.5
68489;BME280;55481;48.764;8.936;2023-05-10T03:03:27;96470;;;11.9;80.5
68489;BME280;55481;48.764;8.936;2023-05-10T03:05:58;96470;;;11.8;80.5
68489;BME280;55481;48.764;8.936;2023-05-10T03:08:28;96470;;;11.8;81
68489;BME280;55481;48.764;8.936;2023-05-10T03:11:03;96470;;;12;80.5
68489;BME280;55481;48.764;8.936;2023-05-10T03:13:39;96480;;;12;80.5
68489;BME280;55481;48.764;8.936;2023-05-10T03:18:42;96480;;;12;80.5
68489;BME280;55481;48.764;8.936;2023-05-10T03:21:10;96480;;;12;80.5
68489;BME280;55481;48.764;8.936;2023-05-10T03:23:41;96480;;;12;80.5
68489;BME280;55481;48.764;8.936;2023-05-10T03:28:42;96480;;;12.1;80.5
68489;BME280;55481;48.764;8.936;2023-05-10T03:31:19;96480;;;12.2;80
68489;BME280;55481;48.764;8.936;2023-05-10T03:38:51;96480;;;12;80.5
68489;BME280;55481;48.764;8.936;2023-05-10T03:41:21;96490;;;11.9;81
68489;BME280;55481;48.764;8.936;2023-05-10T03:43:46;96490;;;11.8;81
68489;BME280;55481;48.764;8.936;2023-05-10T03:46:17;96490;;;11.8;81
68489;BME280;55481;48.764;8.936;2023-05-10T03:48:47;96490;;;11.8;81
68489;BME280;55481;48.764;8.936;2023-05-10T03:51:11;96490;;;11.8;81
68489;BME280;55481;48.764;8.936;2023-05-10T03:59:00;96500;;;11.8;81
68489;BME280;55481;48.764;8.936;2023-05-10T04:04:10;96500;;;11.9;80.5
68489;BME280;55481;48.764;8.936;2023-05-10T04:06:27;96490;;;11.9;80.5
68489;BME280;55481;48.764;8.936;2023-05-10T04:09:03;96500;;;11.9;80.5
68489;BME280;55481;48.764;8.936;2023-05-10T04:13:51;96490;;;11.9;80.5
68489;BME280;55481;48.764;8.936;2023-05-10T04:16:22;96490;;;12;80.5
68489;BME280;55481;48.764;8.936;2023-05-10T04:18:53;96500;;;12;80.5
68489;BME280;55481;48.764;8.936;2023-05-10T04:26:19;96500;;;12;80.5
68489;BME280;55481;48.764;8.936;2023-05-10T04:28:50;96500;;;12.1;80.5
68489;BME280;55481;48.764;8.936;2023-05-10T04:31:21;96500;;;12.1;80.5
68489;BME280;55481;48.764;8.936;2023-05-10T04:33:51;96500;;;12;80.5
68489;BME280;55481;48.764;8.936;2023-05-10T04:38:59;96510;;;12.1;80.5
68489;BME280;55481;48.764;8.936;2023-05-10T04:41:30;96510;;;12.1;80.5
68489;BME280;55481;48.764;8.936;2023-05-10T04:44:00;96510;;;12.2;80.5
68489;BME280;55481;48.764;8.936;2023-05-10T04:46:31;96510;;;12.2;80.5
68489;BME280;55481;48.764;8.936;2023-05-10T04:53:58;96520;;;12.1;80.5
68489;BME280;55481;48.764;8.936;2023-05-10T04:56:28;96520;;;12.1;81
68489;BME280;55481;48.764;8.936;2023-05-10T04:58:59;96520;;;12.1;80.5
68489;BME280;55481;48.764;8.936;2023-05-10T05:01:29;96520;;;12.1;80.5
68489;BME280;55481;48.764;8.936;2023-05-10T05:04:00;96520;;;12.2;80.5
68489;BME280;55481;48.764;8.936;2023-05-10T05:06:31;96520;;;12.2;80.5
68489;BME280;55481;48.764;8.936;2023-05-10T05:09:01;96510;;;12.3;80.5
68489;BME280;55481;48.764;8.936;2023-05-10T05:11:32;96520;;;12.3;80.5
68489;BME280;55481;48.764;8.936;2023-05-10T05:19:05;96520;;;12.2;80.5
68489;BME280;55481;48.764;8.936;2023-05-10T05:21:35;96530;;;12.3;80.5
68489;BME280;55481;48.764;8.936;2023-05-10T05:24:13;96530;;;12.4;80.5
68489;BME280;55481;48.764;8.936;2023-05-10T05:26:44;96530;;;12.4;80.5
68489;BME280;55481;48.764;8.936;2023-05-10T05:29:14;96530;;;12.5;80.5
68489;BME280;55481;48.764;8.936;2023-05-10T05:31:46;96530;;;12.5;80
68489;BME280;55481;48.764;8.936;2023-05-10T05:34:16;96530;;;12.5;80
68489;BME280;55481;48.764;8.936;2023-05-10T05:36:47;96530;;;12.6;80
68489;BME280;55481;48.764;8.936;2023-05-10T05:39:18;96540;;;12.5;80.5
68489;BME280;55481;48.764;8.936;2023-05-10T05:41:42;96540;;;12.5;80.5
68489;BME280;55481;48.764;8.936;2023-05-10T05:44:13;96530;;;12.6;80.5
68489;BME280;55481;48.764;8.936;2023-05-10T05:46:44;96530;;;12.6;80.5
68489;BME280;55481;48.764;8.936;2023-05-10T05:54:16;96530;;;12.7;80
68489;BME280;55481;48.764;8.936;2023-05-10T05:56:47;96550;;;12.6;80.5
68489;BME280;55481;48.764;8.936;2023-05-10T06:02:00;96560;;;12.5;80.5
68489;BME280;55481;48.764;8.936;2023-05-10T06:04:31;96560;;;12.4;81
68489;BME280;55481;48.764;8.936;2023-05-10T06:07:01;96560;;;12.4;81
68489;BME280;55481;48.764;8.936;2023-05-10T06:11:56;96560;;;12;82
68489;BME280;55481;48.764;8.936;2023-05-10T06:14:33;96560;;;12.1;81.5
68489;BME280;55481;48.764;8.936;2023-05-10T06:17:04;96570;;;12;81.5
68489;BME280;55481;48.764;8.936;2023-05-10T06:21:59;96570;;;12.2;81
68489;BME280;55481;48.764;8.936;2023-05-10T06:29:42;96580;;;12.2;81
68489;BME280;55481;48.764;8.936;2023-05-10T06:32:09;96570;;;12.4;80.5
68489;BME280;55481;48.764;8.936;2023-05-10T06:39:35;96580;;;13;79.5
68489;BME280;55481;48.764;8.936;2023-05-10T06:42:06;96580;;;13.1;79.5
68489;BME280;55481;48.764;8.936;2023-05-10T06:44:37;96580;;;13;79.5
68489;BME280;55481;48.764;8.936;2023-05-10T06:47:16;96580;;;13.2;79.5
68489;BME280;55481;48.764;8.936;2023-05-10T06:49:39;96580;;;13.4;79
68489;BME280;55481;48.764;8.936;2023-05-10T06:52:09;96580;;;13.5;79
68489;BME280;55481;48.764;8.936;2023-05-10T06:54:43;96580;;;13.5;79
68489;BME280;55481;48.764;8.936;2023-05-10T06:57:12;96580;;;13.6;79
68489;BME280;55481;48.764;8.936;2023-05-10T06:59:42;96580;;;13.6;79
68489;BME280;55481;48.764;8.936;2023-05-10T07:04:50;96580;;;13.6;79.5
68489;BME280;55481;48.764;8.936;2023-05-10T07:07:28;96570;;;13.7;79.5
68489;BME280;55481;48.764;8.936;2023-05-10T07:09:58;96570;;;13.6;79.5
68489;BME280;55481;48.764;8.936;2023-05-10T07:12:22;96580;;;13.6;80
68489;BME280;55481;48.764;8.936;2023-05-10T07:17:16;96570;;;14;79
68489;BME280;55481;48.764;8.936;2023-05-10T07:19:47;96580;;;13.9;79
68489;BME280;55481;48.764;8.936;2023-05-10T07:22:18;96580;;;13.7;79.5
68489;BME280;55481;48.764;8.936;2023-05-10T07:24:49;96580;;;13.7;80
68489;BME280;55481;48.764;8.936;2023-05-10T07:27:20;96580;;;13.7;80
68489;BME280;55481;48.764;8.936;2023-05-10T07:34:46;96590;;;13.8;80
68489;BME280;55481;48.764;8.936;2023-05-10T07:43:10;96580;;;14.2;80.5
68489;BME280;55481;48.764;8.936;2023-05-10T07:45:40;96590;;;14.1;80
68489;BME280;55481;48.764;8.936;2023-05-10T07:55:44;96590;;;14.5;79.5
68489;BME280;55481;48.764;8.936;2023-05-10T07:58:15;96590;;;14.5;79.5
68489;BME280;55481;48.764;8.936;2023-05-10T08:00:46;96600;;;14.4;79.5
68489;BME280;55481;48.764;8.936;2023-05-10T08:05:53;96590;;;14.6;79.5
68489;BME280;55481;48.764;8.936;2023-05-10T08:08:24;96590;;;14.6;79.5
68489;BME280;55481;48.764;8.936;2023-05-10T08:10:55;96590;;;14.8;79
68489;BME280;55481;48.764;8.936;2023-05-10T08:13:19;96600;;;14.9;78.5
68489;BME280;55481;48.764;8.936;2023-05-10T08:20:51;96600;;;14.8;79.5
68489;BME280;55481;48.764;8.936;2023-05-10T08:23:22;96600;;;15;79
68489;BME280;55481;48.764;8.936;2023-05-10T08:25:53;96600;;;14.9;79
68489;BME280;55481;48.764;8.936;2023-05-10T08:28:24;96610;;;14.6;80
68489;BME280;55481;48.764;8.936;2023-05-10T08:30:55;96610;;;14.5;80.5
68489;BME280;55481;48.764;8.936;2023-05-10T08:33:32;96610;;;14.6;80.5
68489;BME280;55481;48.764;8.936;2023-05-10T08:36:03;96610;;;14.7;80
68489;BME280;55481;48.764;8.936;2023-05-10T08:41:00;96620;;;14.9;79.5
68489;BME280;55481;48.764;8.936;2023-05-10T08:51:01;96620;;;14.9;79.5
68489;BME280;55481;48.764;8.936;2023-05-10T08:53:32;96620;;;14.9;79.5
68489;BME280;55481;48.764;8.936;2023-05-10T08:56:03;96630;;;14.8;80
68489;BME280;55481;48.764;8.936;2023-05-10T08:58:34;96630;;;14.7;80
68489;BME280;55481;48.764;8.936;2023-05-10T09:01:10;96640;;;14.8;80
68489;BME280;55481;48.764;8.936;2023-05-10T09:03:41;96640;;;14.9;80
68489;BME280;55481;48.764;8.936;2023-05-10T09:06:18;96630;;;15.1;79.5
68489;BME280;55481;48.764;8.936;2023-05-10T09:08:43;96630;;;14.9;80
68489;BME280;55481;48.764;8.936;2023-05-10T09:11:15;96630;;;15.2;79.5
68489;BME280;55481;48.764;8.936;2023-05-10T09:13:45;96620;;;15.8;78
68489;BME280;55481;48.764;8.936;2023-05-10T09:16:23;96630;;;15.9;78
68489;BME280;55481;48.764;8.936;2023-05-10T09:18:54;96630;;;16.2;77
68489;BME280;55481;48.764;8.936;2023-05-10T09:23:49;96630;;;15.7;79
68489;BME280;55481;48.764;8.936;2023-05-10T09:28:58;96630;;;15.6;79
68489;BME280;55481;48.764;8.936;2023-05-10T09:31:45;96630;;;15.7;79.5
68489;BME280;55481;48.764;8.936;2023-05-10T09:36:21;96630;;;16.2;78.5
68489;BME280;55481;48.764;8.936;2023-05-10T09:38:52;96630;;;16.1;78
68489;BME280;55481;48.764;8.936;2023-05-10T09:41:23;96640;;;15.8;79
68489;BME280;55481;48.764;8.936;2023-05-10T09:44:01;96640;;;16;79
68489;BME280;55481;48.764;8.936;2023-05-10T09:46:34;96630;;;16.1;78.5
68489;BME280;55481;48.764;8.936;2023-05-10T09:51:27;96640;;;15.9;79.5
68489;BME280;55481;48.764;8.936;2023-05-10T09:56:36;96640;;;16.2;78.5
68489;BME280;55481;48.764;8.936;2023-05-10T09:59:06;96640;;;16.5;78
68489;BME280;55481;48.764;8.936;2023-05-10T10:04:07;96640;;;16.3;78.5
68489;BME280;55481;48.764;8.936;2023-05-10T10:06:36;96640;;;16.2;79.5
68489;BME280;55481;48.764;8.936;2023-05-10T10:09:02;96640;;;16.5;78.5
68489;BME280;55481;48.764;8.936;2023-05-10T10:11:34;96640;;;16.7;78
68489;BME280;55481;48.764;8.936;2023-05-10T10:19:24;96640;;;17.3;76.5
68489;BME280;55481;48.764;8.936;2023-05-10T10:21:48;96640;;;16.8;78
68489;BME280;55481;48.764;8.936;2023-05-10T10:26:35;96660;;;15.7;80
68489;BME280;55481;48.764;8.936;2023-05-10T10:29:39;96660;;;15.1;81.5
68489;BME280;55481;48.764;8.936;2023-05-10T10:31:39;96670;;;14.7;82
68489;BME280;55481;48.764;8.936;2023-05-10T10:41:35;96680;;;14.4;82.5
68489;BME280;55481;48.764;8.936;2023-05-10T10:44:36;96680;;;15;81
68489;BME280;55481;48.764;8.936;2023-05-10T10:46:34;96680;;;15.2;80
68489;BME280;55481;48.764;8.936;2023-05-10T10:49:09;96690;;;14.8;81
68489;BME280;55481;48.764;8.936;2023-05-10T10:51:36;96690;;;14.3;82
68489;BME280;55481;48.764;8.936;2023-05-10T10:54:09;96690;;;14.3;82
68489;BME280;55481;48.764;8.936;2023-05-10T10:56:37;96690;;;13.9;82
68489;BME280;55481;48.764;8.936;2023-05-10T10:59:08;96690;;;13.7;83
68489;BME280;55481;48.764;8.936;2023-05-10T11:07:15;96680;;;13.8;82.5
68489;BME280;55481;48.764;8.936;2023-05-10T11:09:30;96680;;;14;82
68489;BME280;55481;48.764;8.936;2023-05-10T11:12:08;96680;;;14;81.5
68489;BME280;55481;48.764;8.936;2023-05-10T11:16:48;96690;;;14.2;81
68489;BME280;55481;48.764;8.936;2023-05-10T11:19:19;96690;;;14.5;80.5
68489;BME280;55481;48.764;8.936;2023-05-10T11:24:14;96680;;;14.4;80.5
68489;BME280;55481;48.764;8.936;2023-05-10T11:26:45;96690;;;14.4;80.5
68489;BME280;55481;48.764;8.936;2023-05-10T11:34:31;96680;;;14.9;79.5
68489;BME280;55481;48.764;8.936;2023-05-10T11:36:50;96680;;;15.1;79.5
68489;BME280;55481;48.764;8.936;2023-05-10T11:41:55;96680;;;15.4;78.5
68489;BME280;55481;48.764;8.936;2023-05-10T11:44:33;96670;;;15.6;78.5
68489;BME280;55481;48.764;8.936;2023-05-10T11:46:59;96670;;;15.7;78.5
68489;BME280;55481;48.764;8.936;2023-05-10T11:49:28;96670;;;16;78
68489;BME280;55481;48.764;8.936;2023-05-10T11:52:18;96680;;;16.4;77
68489;BME280;55481;48.764;8.936;2023-05-10T11:54:23;96680;;;16.2;77
68489;BME280;55481;48.764;8.936;2023-05-10T12:01:55;96690;;;15.7;79
68489;BME280;55481;48.764;8.936;2023-05-10T12:04:26;96690;;;15.8;79
68489;BME280;55481;48.764;8.936;2023-05-10T12:06:57;96690;;;16.2;78
68489;BME280;55481;48.764;8.936;2023-05-10T12:09:28;96690;;;16.2;78
68489;BME280;55481;48.764;8.936;2023-05-10T12:11:58;96690;;;16.3;78
68489;BME280;55481;48.764;8.936;2023-05-10T12:14:29;96690;;;16.4;77.5
68489;BME280;55481;48.764;8.936;2023-05-10T12:22:04;96690;;;15.3;80.5
68489;BME280;55481;48.764;8.936;2023-05-10T12:27:09;96700;;;14.9;81
68489;BME280;55481;48.764;8.936;2023-05-10T12:29:41;96700;;;14.8;81
68489;BME280;55481;48.764;8.936;2023-05-10T12:34:42;96700;;;15.4;80
68489;BME280;55481;48.764;8.936;2023-05-10T12:37:23;96700;;;15.5;79
68489;BME280;55481;48.764;8.936;2023-05-10T12:39:49;96700;;;16;78
68489;BME280;55481;48.764;8.936;2023-05-10T12:42:28;96700;;;16.1;78
68489;BME280;55481;48.764;8.936;2023-05-10T12:47:13;96700;;;16.5;77.5
68489;BME280;55481;48.764;8.936;2023-05-10T12:49:45;96690;;;16.6;77
68489;BME280;55481;48.764;8.936;2023-05-10T12:52:16;96690;;;17.3;75.5
68489;BME280;55481;48.764;8.936;2023-05-10T12:57:11;96690;;;17;76.5
68489;BME280;55481;48.764;8.936;2023-05-10T12:59:42;96700;;;16.9;77
68489;BME280;55481;48.764;8.936;2023-05-10T13:07:14;96700;;;16.5;78
68489;BME280;55481;48.764;8.936;2023-05-10T13:09:45;96700;;;16.3;78
68489;BME280;55481;48.764;8.936;2023-05-10T13:12:15;96690;;;16.1;79
68489;BME280;55481;48.764;8.936;2023-05-10T13:14:53;96690;;;16.5;78
68489;BME280;55481;48.764;8.936;2023-05-10T13:17:25;96690;;;16.4;78
68489;BME280;55481;48.764;8.936;2023-05-10T13:19:55;96690;;;16.4;78
68489;BME280;55481;48.764;8.936;2023-05-10T13:22:26;96690;;;16.1;79
68489;BME280;55481;48.764;8.936;2023-05-10T13:24:57;96700;;;16.2;78.5
68489;BME280;55481;48.764;8.936;2023-05-10T13:27:28;96690;;;16.1;78.5
68489;BME280;55481;48.764;8.936;2023-05-10T13:34:54;96690;;;16.1;78.5
68489;BME280;55481;48.764;8.936;2023-05-10T13:37:24;96690;;;16.4;78
68489;BME280;55481;48.764;8.936;2023-05-10T13:39:55;96690;;;16.3;78
68489;BME280;55481;48.764;8.936;2023-05-10T13:42:26;96690;;;16.2;78
68489;BME280;55481;48.764;8.936;2023-05-10T13:45:10;96690;;;16.1;78.5
68489;BME280;55481;48.764;8.936;2023-05-10T13:47:35;96680;;;16.1;78
68489;BME280;55481;48.764;8.936;2023-05-10T13:50:05;96690;;;16;78.5
68489;BME280;55481;48.764;8.936;2023-05-10T13:52:36;96680;;;15.9;78.5
68489;BME280;55481;48.764;8.936;2023-05-10T13:55:00;96680;;;15.9;78.5
68489;BME280;55481;48.764;8.936;2023-05-10T14:05:09;96680;;;16.7;76.5
68489;BME280;55481;48.764;8.936;2023-05-10T14:07:34;96670;;;16.8;76
68489;BME280;55481;48.764;8.936;2023-05-10T14:10:05;96670;;;16.8;76.5
68489;BME280;55481;48.764;8.936;2023-05-10T14:12:36;96670;;;16.8;76
68489;BME280;55481;48.764;8.936;2023-05-10T14:15:07;96670;;;16.3;77.5
68489;BME280;55481;48.764;8.936;2023-05-10T14:20:14;96670;;;15.9;78.5
68489;BME280;55481;48.764;8.936;2023-05-10T14:22:45;96670;;;15.8;78.5
68489;BME280;55481;48.764;8.936;2023-05-10T14:25:16;96670;;;15.7;78.5
68489;BME280;55481;48.764;8.936;2023-05-10T14:32:42;96660;;;15.6;78.5
68489;BME280;55481;48.764;8.936;2023-05-10T14:35:12;96670;;;15.4;79
68489;BME280;55481;48.764;8.936;2023-05-10T14:37:46;96670;;;15.5;78.5
68489;BME280;55481;48.764;8.936;2023-05-10T14:40:15;96660;;;15.9;77.5
68489;BME280;55481;48.764;8.936;2023-05-10T14:42:44;96670;;;16.1;77
68489;BME280;55481;48.764;8.936;2023-05-10T14:50:23;96660;;;16.3;77
68489;BME280;55481;48.764;8.936;2023-05-10T14:52:53;96670;;;16.5;76.5
68489;BME280;55481;48.764;8.936;2023-05-10T14:55:25;96660;;;16.4;76.5
68489;BME280;55481;48.764;8.936;2023-05-10T14:58:02;96670;;;16.5;76.5
68489;BME280;55481;48.764;8.936;2023-05-10T15:03:10;96670;;;16.3;77
68489;BME280;55481;48.764;8.936;2023-05-10T15:05:34;96670;;;16.6;76.5
68489;BME280;55481;48.764;8.936;2023-05-10T15:08:04;96670;;;16.6;76.5
68489;BME280;55481;48.764;8.936;2023-05-10T15:12:58;96670;;;16.2;77.5
68489;BME280;55481;48.764;8.936;2023-05-10T15:15:29;96670;;;16.1;77.5
68489;BME280;55481;48.764;8.936;2023-05-10T15:18:00;96670;;;16;78
68489;BME280;55481;48.764;8.936;2023-05-10T15:20:31;96670;;;16.2;77.5
68489;BME280;55481;48.764;8.936;2023-05-10T15:23:02;96670;;;16.2;77.5
68489;BME280;55481;48.764;8.936;2023-05-10T15:25:39;96670;;;16.2;77.5
68489;BME280;55481;48.764;8.936;2023-05-10T15:33:12;96670;;;16.2;77
68489;BME280;55481;48.764;8.936;2023-05-10T15:35:42;96680;;;16.1;77
68489;BME280;55481;48.764;8.936;2023-05-10T15:38:12;96680;;;16;77.5
68489;BME280;55481;48.764;8.936;2023-05-10T15:40:42;96680;;;16.2;77
68489;BME280;55481;48.764;8.936;2023-05-10T15:43:13;96680;;;16.1;77
68489;BME280;55481;48.764;8.936;2023-05-10T15:45:42;96670;;;16;77.5
68489;BME280;55481;48.764;8.936;2023-05-10T15:48:13;96680;;;16.2;77
68489;BME280;55481;48.764;8.936;2023-05-10T15:50:49;96680;;;16.1;77.5
68489;BME280;55481;48.764;8.936;2023-05-10T15:53:20;96680;;;16.4;76.5
68489;BME280;55481;48.764;8.936;2023-05-10T15:55:43;96680;;;16.3;76.5
68489;BME280;55481;48.764;8.936;2023-05-10T15:58:14;96680;;;16.4;76.5
68489;BME280;55481;48.764;8.936;2023-05-10T16:03:08;96680;;;16.3;77
68489;BME280;55481;48.764;8.936;2023-05-10T16:05:39;96680;;;16.3;76.5
68489;BME280;55481;48.764;8.936;2023-05-10T16:08:11;96680;;;16.3;76.5
68489;BME280;55481;48.764;8.936;2023-05-10T16:10:41;96680;;;15.9;77.5
68489;BME280;55481;48.764;8.936;2023-05-10T16:13:12;96680;;;15.9;77
68489;BME280;55481;48.764;8.936;2023-05-10T16:15:52;96690;;;15.5;78
68489;BME280;55481;48.764;8.936;2023-05-10T16:20:45;96690;;;15.1;79
68489;BME280;55481;48.764;8.936;2023-05-10T16:23:16;96700;;;15.1;78.5
68489;BME280;55481;48.764;8.936;2023-05-10T16:25:47;96690;;;15.1;78.5
68489;BME280;55481;48.764;8.936;2023-05-10T16:28:18;96700;;;15;78.5
68489;BME280;55481;48.764;8.936;2023-05-10T16:30:49;96710;;;15;78.5
68489;BME280;55481;48.764;8.936;2023-05-10T16:33:20;96710;;;15;78
68489;BME280;55481;48.764;8.936;2023-05-10T16:38:15;96710;;;15;78
68489;BME280;55481;48.764;8.936;2023-05-10T16:45:47;96710;;;15.1;77.5
68489;BME280;55481;48.764;8.936;2023-05-10T16:48:18;96710;;;15.2;77.5
68489;BME280;55481;48.764;8.936;2023-05-10T16:50:49;96720;;;15.1;77.5
68489;BME280;55481;48.764;8.936;2023-05-10T16:53:19;96720;;;15;77.5
68489;BME280;55481;48.764;8.936;2023-05-10T16:58:27;96720;;;15;77.5
68489;BME280;55481;48.764;8.936;2023-05-10T17:00:58;96720;;;15.2;77
68489;BME280;55481;48.764;8.936;2023-05-10T17:03:29;96720;;;15.1;77
68489;BME280;55481;48.764;8.936;2023-05-10T17:06:00;96730;;;14.9;78
68489;BME280;55481;48.764;8.936;2023-05-10T17:15:56;96730;;;14.4;78.5
68489;BME280;55481;48.764;8.936;2023-05-10T17:18:27;96740;;;14.3;78.5
68489;BME280;55481;48.764;8.936;2023-05-10T17:20:57;96740;;;14.3;78.5
68489;BME280;55481;48.764;8.936;2023-05-10T17:26:02;96740;;;14.3;78
68489;BME280;55481;48.764;8.936;2023-05-10T17:31:01;96740;;;14.1;78.5
68489;BME280;55481;48.764;8.936;2023-05-10T17:33:32;96740;;;14;78.5
68489;BME280;55481;48.764;8.936;2023-05-10T17:36:03;96740;;;14;78.5
68489;BME280;55481;48.764;8.936;2023-05-10T17:38:33;96740;;;14;78.5
68489;BME280;55481;48.764;8.936;2023-05-10T17:46:05;96750;;;13.9;78.5
68489;BME280;55481;48.764;8.936;2023-05-10T17:51:13;96750;;;13.8;78.5
68489;BME280;55481;48.764;8.936;2023-05-10T17:53:44;96750;;;13.7;78.5
68489;BME280;55481;48.764;8.936;2023-05-10T17:56:29;96750;;;13.7;78.5
68489;BME280;55481;48.764;8.936;2023-05-10T18:01:10;96750;;;13.6;78.5
68489;BME280;55481;48.764;8.936;2023-05-10T18:03:40;96760;;;13.7;78.5
68489;BME280;55481;48.764;8.936;2023-05-10T18:06:11;96750;;;13.7;78.5
68489;BME280;55481;48.764;8.936;2023-05-10T18:13:43;96760;;;13.6;78.5
68489;BME280;55481;48.764;8.936;2023-05-10T18:16:20;96760;;;13.5;78.5
68489;BME280;55481;48.764;8.936;2023-05-10T18:18:45;96760;;;13.5;78.5
68489;BME280;55481;48.764;8.936;2023-05-10T18:21:22;96760;;;13.4;78.5
68489;BME280;55481;48.764;8.936;2023-05-10T18:23:53;96760;;;13.3;79
68489;BME280;55481;48.764;8.936;2023-05-10T18:28:49;96770;;;13.2;79
68489;BME280;55481;48.764;8.936;2023-05-10T18:31:19;96760;;;13.2;79
68489;BME280;55481;48.764;8.936;2023-05-10T18:33:50;96770;;;13.2;79
68489;BME280;55481;48.764;8.936;2023-05-10T18:41:23;96770;;;13.1;79
68489;BME280;55481;48.764;8.936;2023-05-10T18:46:30;96760;;;13.1;78.5
68489;BME280;55481;48.764;8.936;2023-05-10T18:49:01;96770;;;13.2;78.5
68489;BME280;55481;48.764;8.936;2023-05-10T18:51:42;96770;;;13.2;78.5
68489;BME280;55481;48.764;8.936;2023-05-10T18:54:03;96770;;;13.1;78.5
68489;BME280;55481;48.764;8.936;2023-05-10T18:59:00;96780;;;13.1;78.5
68489;BME280;55481;48.764;8.936;2023-05-10T19:01:29;96770;;;13;78.5
68489;BME280;55481;48.764;8.936;2023-05-10T19:03:59;96770;;;13;78.5
68489;BME280;55481;48.764;8.936;2023-05-10T19:06:30;96770;;;13;78.5
68489;BME280;55481;48.764;8.936;2023-05-10T19:14:03;96780;;;12.9;79
68489;BME280;55481;48.764;8.936;2023-05-10T19:16:33;96790;;;12.9;78.5
68489;BME280;55481;48.764;8.936;2023-05-10T19:19:04;96780;;;12.9;78.5
68489;BME280;55481;48.764;8.936;2023-05-10T19:21:35;96790;;;12.8;79
68489;BME280;55481;48.764;8.936;2023-05-10T19:24:12;96790;;;12.8;78.5
68489;BME280;55481;48.764;8.936;2023-05-10T19:26:43;96790;;;12.8;78.5
68489;BME280;55481;48.764;8.936;2023-05-10T19:29:14;96800;;;12.7;79
68489;BME280;55481;48.764;8.936;2023-05-10T19:31:38;96800;;;12.7;78.5
68489;BME280;55481;48.764;8.936;2023-05-10T19:34:09;96800;;;12.7;79
68489;BME280;55481;48.764;8.936;2023-05-10T19:41:41;96800;;;12.6;78.5
68489;BME280;55481;48.764;8.936;2023-05-10T19:44:12;96810;;;12.6;78.5
68489;BME280;55481;48.764;8.936;2023-05-10T19:46:43;96810;;;12.6;78.5
68489;BME280;55481;48.764;8.936;2023-05-10T19:54:22;96810;;;12.5;78.5
68489;BME280;55481;48.764;8.936;2023-05-10T19:56:52;96810;;;12.5;78.5
68489;BME280;55481;48.764;8.936;2023-05-10T20:06:49;96800;;;12.4;78.5